createdAt,value
2023-03-28T00:00:59.178Z,99854.88
2023-03-28T00:03:36.656Z,99865.34
2023-03-28T00:06:13.965Z,99867.06
2023-03-28T00:08:47.488Z,99872.28
2023-03-28T00:11:22.969Z,99879.59
2023-03-28T00:14:00.577Z,99879.84
2023-03-28T00:16:37.284Z,99874.56
2023-03-28T00:19:12.905Z,99878.84
2023-03-28T00:21:49.701Z,99875.66
2023-03-28T00:24:22.526Z,99880.53
2023-03-28T00:26:55.681Z,99876.78
2023-03-28T00:29:30.146Z,99884.97
2023-03-28T00:32:03.148Z,99882.72
2023-03-28T00:34:36.060Z,99889.59
2023-03-28T00:37:17.261Z,99891.47
2023-03-28T00:39:51.126Z,99896.34
2023-03-28T00:42:24.931Z,99891.44
2023-03-28T00:45:00.044Z,99897.94
2023-03-28T00:47:42.312Z,99893.34
2023-03-28T00:50:21.021Z,99901.88
2023-03-28T00:53:04.334Z,99899.22
2023-03-28T00:55:41.012Z,99893.53
2023-03-28T00:58:19.134Z,99901.28
2023-03-28T01:00:52.243Z,99901.34
2023-03-28T01:03:30.491Z,99896.38
2023-03-28T01:06:06.251Z,99900.22
2023-03-28T01:08:48.175Z,99908.09
2023-03-28T01:11:21.771Z,99909.34
2023-03-28T01:13:56.389Z,99912.84
2023-03-28T01:16:41.333Z,99912.41
2023-03-28T01:19:26.851Z,99910.97
2023-03-28T01:22:29.789Z,99915.72
2023-03-28T01:25:46.654Z,99908.84
2023-03-28T01:28:37.674Z,99921.44
2023-03-28T01:31:43.746Z,99922.22
2023-03-28T01:35:01.406Z,99916.06
2023-03-28T01:37:45.883Z,99928.66
2023-03-28T01:40:32.495Z,99931.66
2023-03-28T01:43:20.692Z,99930.53
2023-03-28T01:46:01.483Z,99929.59
2023-03-28T01:48:47.975Z,99930.06
2023-03-28T01:51:26.090Z,99923.88
2023-03-28T01:54:16.095Z,99935.34
2023-03-28T01:56:57.847Z,99930.53
2023-03-28T01:59:42.636Z,99934.22
2023-03-28T02:02:37.099Z,99940.72
2023-03-28T02:05:35.893Z,99938.69
2023-03-28T02:08:13.481Z,99930.28
2023-03-28T02:10:54.192Z,99940.03
2023-03-28T02:13:44.964Z,99938.06
2023-03-28T02:16:42.351Z,99935.69
2023-03-28T02:19:49.230Z,99933.88
2023-03-28T02:22:54.904Z,99939.84
2023-03-28T02:25:52.521Z,99928.84
2023-03-28T02:28:44.197Z,99946.84
2023-03-28T02:31:36.346Z,99937.19
2023-03-28T02:34:10.808Z,99941.56
2023-03-28T02:36:52.689Z,99937.53
2023-03-28T02:39:46.721Z,99940.66
2023-03-28T02:42:40.319Z,99938.81
2023-03-28T02:45:29.838Z,99941.91
2023-03-28T02:48:14.494Z,99945.66
2023-03-28T02:51:01.025Z,99942.34
2023-03-28T02:53:44.784Z,99944.41
2023-03-28T02:56:25.492Z,99952.09
2023-03-28T02:59:19.746Z,99949.13
2023-03-28T03:01:53.060Z,99945.22
2023-03-28T03:04:26.012Z,99948.53
2023-03-28T03:07:01.287Z,99942.81
2023-03-28T03:09:36.503Z,99955.06
2023-03-28T03:12:10.550Z,99956.19
2023-03-28T03:14:44.812Z,99951.19
2023-03-28T03:17:54.082Z,99957.03
2023-03-28T03:20:33.905Z,99959.09
2023-03-28T03:23:08.764Z,99966.63
2023-03-28T03:25:43.365Z,99965.25
2023-03-28T03:28:25.562Z,99959.09
2023-03-28T03:30:59.991Z,99962.63
2023-03-28T03:33:59.210Z,99959.19
2023-03-28T03:36:36.202Z,99968.91
2023-03-28T03:39:12.684Z,99965.63
2023-03-28T03:41:45.930Z,99977.63
2023-03-28T03:44:19.180Z,99972.59
2023-03-28T03:46:53.515Z,99968.69
2023-03-28T03:49:26.466Z,99976.84
2023-03-28T03:51:59.590Z,99975.78
2023-03-28T03:54:33.994Z,99980.13
2023-03-28T03:57:08.176Z,99983.47
2023-03-28T03:59:41.351Z,99991.34
2023-03-28T04:02:20.084Z,99979.97
2023-03-28T04:05:07.418Z,99982.91
2023-03-28T04:08:09.916Z,99980.00
2023-03-28T04:10:47.394Z,99986.91
2023-03-28T04:13:20.634Z,99989.03
2023-03-28T04:15:59.478Z,99989.72
2023-03-28T04:18:50.902Z,99987.59
2023-03-28T04:21:29.725Z,99983.97
2023-03-28T04:24:02.939Z,99981.59
2023-03-28T04:26:50.136Z,99979.81
2023-03-28T04:29:30.801Z,99980.09
2023-03-28T04:32:35.952Z,99976.41
2023-03-28T04:35:16.467Z,99989.28
2023-03-28T04:37:51.412Z,99981.91
2023-03-28T04:40:28.192Z,99990.00
2023-03-28T04:43:21.620Z,99993.16
2023-03-28T04:45:59.219Z,99988.03
2023-03-28T04:48:32.314Z,99987.81
2023-03-28T04:51:07.762Z,99991.91
2023-03-28T04:53:44.857Z,100000.06
2023-03-28T04:56:36.539Z,100000.44
2023-03-28T04:59:09.768Z,100004.63
2023-03-28T05:01:49.699Z,100003.03
2023-03-28T05:04:38.828Z,100010.84
2023-03-28T05:07:14.847Z,100017.84
2023-03-28T05:09:48.166Z,100014.25
2023-03-28T05:12:21.312Z,100020.09
2023-03-28T05:15:09.839Z,100015.72
2023-03-28T05:17:54.151Z,100018.63
2023-03-28T05:20:37.397Z,100026.28
2023-03-28T05:23:12.389Z,100036.44
2023-03-28T05:25:52.042Z,100026.50
2023-03-28T05:28:25.405Z,100040.16
2023-03-28T05:30:59.089Z,100040.84
2023-03-28T05:33:33.554Z,100047.25
2023-03-28T05:36:06.965Z,100059.72
2023-03-28T05:38:41.368Z,100062.38
2023-03-28T05:41:21.477Z,100064.00
2023-03-28T05:43:54.495Z,100067.81
2023-03-28T05:46:44.921Z,100080.69
2023-03-28T05:49:17.951Z,100074.44
2023-03-28T05:51:52.069Z,100074.91
2023-03-28T05:54:26.468Z,100085.75
2023-03-28T05:56:59.955Z,100084.97
2023-03-28T05:59:33.282Z,100095.81
2023-03-28T06:02:06.395Z,100094.56
2023-03-28T06:04:39.315Z,100095.63
2023-03-28T06:07:21.172Z,100115.69
2023-03-28T06:10:01.739Z,100115.16
2023-03-28T06:12:36.837Z,100110.56
2023-03-28T06:15:10.601Z,100105.66
2023-03-28T06:17:48.287Z,100117.50
2023-03-28T06:20:21.720Z,100118.16
2023-03-28T06:22:59.610Z,100124.25
2023-03-28T06:25:34.335Z,100115.13
2023-03-28T06:28:08.160Z,100114.00
2023-03-28T06:30:57.273Z,100124.56
2023-03-28T06:33:30.236Z,100120.41
2023-03-28T06:36:03.671Z,100115.28
2023-03-28T06:38:40.106Z,100116.88
2023-03-28T06:41:15.611Z,100109.31
2023-03-28T06:43:48.562Z,100111.72
2023-03-28T06:46:40.413Z,100110.69
2023-03-28T06:49:13.396Z,100112.84
2023-03-28T06:52:05.072Z,100118.81
2023-03-28T06:54:39.487Z,100132.34
2023-03-28T06:57:13.728Z,100127.84
2023-03-28T06:59:48.102Z,100125.06
2023-03-28T07:02:27.108Z,100131.72
2023-03-28T07:05:03.843Z,100131.63
2023-03-28T07:07:37.361Z,100132.63
2023-03-28T07:10:10.940Z,100139.13
2023-03-28T07:12:45.996Z,100140.34
2023-03-28T07:15:19.718Z,100148.38
2023-03-28T07:17:53.380Z,100154.56
2023-03-28T07:20:27.216Z,100154.66
2023-03-28T07:23:01.376Z,100155.97
2023-03-28T07:25:36.029Z,100165.69
2023-03-28T07:28:10.706Z,100169.47
2023-03-28T07:30:43.525Z,100178.00
2023-03-28T07:33:20.008Z,100178.09
2023-03-28T07:35:57.158Z,100184.16
2023-03-28T07:38:30.801Z,100182.94
2023-03-28T07:41:05.484Z,100187.72
2023-03-28T07:43:40.496Z,100186.03
2023-03-28T07:46:16.287Z,100186.88
2023-03-28T07:48:49.896Z,100188.91
2023-03-28T07:51:23.406Z,100203.59
2023-03-28T07:53:57.025Z,100194.84
2023-03-28T07:56:31.193Z,100197.41
2023-03-28T07:59:24.752Z,100198.56
2023-03-28T08:01:59.430Z,100192.41
2023-03-28T08:04:32.780Z,100195.91
2023-03-28T08:07:12.808Z,100207.63
2023-03-28T08:09:51.049Z,100206.53
2023-03-28T08:12:29.722Z,100201.09
2023-03-28T08:15:08.111Z,100209.47
2023-03-28T08:17:41.329Z,100209.22
2023-03-28T08:20:14.857Z,100218.19
2023-03-28T08:23:14.684Z,100217.81
2023-03-28T08:26:08.187Z,100215.63
2023-03-28T08:28:43.953Z,100225.22
2023-03-28T08:31:18.474Z,100217.66
2023-03-28T08:33:57.985Z,100220.09
2023-03-28T08:36:37.076Z,100220.69
2023-03-28T08:39:10.894Z,100223.03
2023-03-28T08:42:13.019Z,100225.94
2023-03-28T08:44:57.088Z,100214.28
2023-03-28T08:47:34.532Z,100229.47
2023-03-28T08:50:14.648Z,100229.16
2023-03-28T08:52:48.301Z,100226.59
2023-03-28T08:55:32.253Z,100229.44
2023-03-28T08:58:07.051Z,100224.56
2023-03-28T09:00:40.342Z,100235.06
2023-03-28T09:03:17.163Z,100225.72
2023-03-28T09:05:54.775Z,100232.56
2023-03-28T09:08:53.630Z,100230.81
2023-03-28T09:11:38.750Z,100224.13
2023-03-28T09:14:24.888Z,100223.72
2023-03-28T09:17:07.189Z,100219.69
2023-03-28T09:20:11.410Z,100217.59
2023-03-28T09:23:19.545Z,100220.06
2023-03-28T09:26:17.126Z,100226.22
2023-03-28T09:28:58.211Z,100220.78
2023-03-28T09:31:34.499Z,100218.94
2023-03-28T09:34:09.411Z,100216.75
2023-03-28T09:36:55.562Z,100221.41
2023-03-28T09:39:36.921Z,100220.75
2023-03-28T09:42:16.961Z,100224.47
2023-03-28T09:45:01.212Z,100220.44
2023-03-28T09:48:03.688Z,100226.56
2023-03-28T09:50:41.712Z,100225.97
2023-03-28T09:53:22.977Z,100215.63
2023-03-28T09:56:04.525Z,100227.53
2023-03-28T09:58:52.896Z,100229.91
2023-03-28T10:01:41.941Z,100227.75
2023-03-28T10:04:36.406Z,100232.41
2023-03-28T10:07:34.479Z,100226.88
2023-03-28T10:10:23.564Z,100232.16
2023-03-28T10:13:04.736Z,100224.75
2023-03-28T10:15:45.894Z,100221.22
2023-03-28T10:18:51.130Z,100215.75
2023-03-28T10:21:37.490Z,100217.50
2023-03-28T10:24:23.423Z,100224.38
2023-03-28T10:27:09.162Z,100214.78
2023-03-28T10:29:42.327Z,100208.97
2023-03-28T10:32:24.454Z,100206.44
2023-03-28T10:35:31.178Z,100202.09
2023-03-28T10:38:21.762Z,100202.09
2023-03-28T10:41:20.529Z,100208.88
2023-03-28T10:44:20.662Z,100203.38
2023-03-28T10:47:04.495Z,100197.31
2023-03-28T10:49:48.642Z,100206.44
2023-03-28T10:52:31.168Z,100201.66
2023-03-28T10:55:15.730Z,100191.16
2023-03-28T10:58:17.306Z,100194.78
2023-03-28T11:01:05.975Z,100193.31
2023-03-28T11:04:08.444Z,100185.19
2023-03-28T11:06:48.104Z,100176.88
2023-03-28T11:09:32.530Z,100179.19
2023-03-28T11:12:51.249Z,100179.31
2023-03-28T11:15:35.052Z,100174.16
2023-03-28T11:18:33.170Z,100173.59
2023-03-28T11:21:21.004Z,100172.78
2023-03-28T11:24:06.010Z,100168.59
2023-03-28T11:27:08.559Z,100159.59
2023-03-28T11:30:02.332Z,100158.06
2023-03-28T11:32:50.217Z,100162.22
2023-03-28T11:35:31.635Z,100157.06
2023-03-28T11:38:12.666Z,100163.72
2023-03-28T11:40:53.778Z,100162.41
2023-03-28T11:43:42.684Z,100137.41
2023-03-28T11:46:21.721Z,100143.06
2023-03-28T11:49:01.013Z,100160.25
2023-03-28T11:51:43.225Z,100146.97
2023-03-28T11:54:20.285Z,100148.94
2023-03-28T11:56:57.859Z,100145.31
2023-03-28T11:59:46.818Z,100139.88
2023-03-28T12:02:36.402Z,100126.81
2023-03-28T12:05:20.943Z,100132.66
2023-03-28T12:08:04.280Z,100127.16
2023-03-28T12:10:38.367Z,100129.91
2023-03-28T12:13:25.574Z,100136.56
2023-03-28T12:16:10.105Z,100131.78
2023-03-28T12:18:47.224Z,100118.47
2023-03-28T12:21:41.596Z,100104.31
2023-03-28T12:24:26.137Z,100098.00
2023-03-28T12:27:15.987Z,100099.06
2023-03-28T12:29:54.286Z,100104.69
2023-03-28T12:32:38.323Z,100098.91
2023-03-28T12:35:19.714Z,100093.13
2023-03-28T12:38:12.857Z,100094.34
2023-03-28T12:40:55.915Z,100088.59
2023-03-28T12:43:42.683Z,100084.50
2023-03-28T12:46:21.568Z,100082.78
2023-03-28T12:48:59.125Z,100087.75
2023-03-28T12:51:36.542Z,100090.97
2023-03-28T12:54:24.874Z,100093.44
2023-03-28T12:57:23.719Z,100087.88
2023-03-28T13:00:23.400Z,100079.34
2023-03-28T13:03:28.468Z,100083.56
2023-03-28T13:06:10.471Z,100079.63
2023-03-28T13:08:58.766Z,100078.72
2023-03-28T13:11:40.135Z,100072.31
2023-03-28T13:14:33.384Z,100067.97
2023-03-28T13:17:21.734Z,100082.88
2023-03-28T13:19:56.955Z,100077.13
2023-03-28T13:22:33.273Z,100068.72
2023-03-28T13:25:25.949Z,100062.69
2023-03-28T13:28:01.748Z,100058.19
2023-03-28T13:30:36.141Z,100073.78
2023-03-28T13:33:26.883Z,100064.13
2023-03-28T13:36:25.202Z,100055.50
2023-03-28T13:39:10.402Z,100058.50
2023-03-28T13:41:59.741Z,100052.75
2023-03-28T13:44:40.158Z,100040.97
2023-03-28T13:47:24.073Z,100047.72
2023-03-28T13:50:02.641Z,100050.13
2023-03-28T13:52:35.798Z,100046.66
2023-03-28T13:55:20.716Z,100049.25
2023-03-28T13:57:54.436Z,100048.91
2023-03-28T14:00:28.889Z,100037.53
2023-03-28T14:03:05.887Z,100040.19
2023-03-28T14:05:44.580Z,100041.19
2023-03-28T14:08:23.895Z,100045.81
2023-03-28T14:10:57.168Z,100033.94
2023-03-28T14:13:31.381Z,100036.09
2023-03-28T14:16:07.515Z,100030.22
2023-03-28T14:18:45.180Z,100019.50
2023-03-28T14:21:18.744Z,100018.50
2023-03-28T14:23:58.671Z,100020.28
2023-03-28T14:26:35.277Z,100013.38
2023-03-28T14:29:11.947Z,100004.16
2023-03-28T14:31:47.169Z,100005.75
2023-03-28T14:34:25.888Z,99990.16
2023-03-28T14:37:01.698Z,99985.56
2023-03-28T14:39:37.233Z,99991.47
2023-03-28T14:42:16.135Z,99979.44
2023-03-28T14:44:53.640Z,99973.88
2023-03-28T14:47:30.852Z,99961.16
2023-03-28T14:50:07.188Z,99965.28
2023-03-28T14:52:41.288Z,99960.69
2023-03-28T14:55:18.767Z,99965.00
2023-03-28T14:57:53.413Z,99958.84
2023-03-28T15:00:34.206Z,99958.44
2023-03-28T15:03:12.036Z,99948.38
2023-03-28T15:05:48.737Z,99953.72
2023-03-28T15:08:28.322Z,99951.25
2023-03-28T15:11:06.531Z,99950.97
2023-03-28T15:13:41.645Z,99950.09
2023-03-28T15:16:20.711Z,99948.03
2023-03-28T15:18:58.459Z,99938.31
2023-03-28T15:21:34.702Z,99934.28
2023-03-28T15:24:12.695Z,99924.72
2023-03-28T15:26:50.598Z,99930.53
2023-03-28T15:29:25.403Z,99912.88
2023-03-28T15:32:06.821Z,99916.38
2023-03-28T15:34:48.303Z,99911.06
2023-03-28T15:37:27.169Z,99906.03
2023-03-28T15:40:22.829Z,99910.00
2023-03-28T15:42:57.583Z,99895.41
2023-03-28T15:45:41.217Z,99898.31
2023-03-28T15:48:18.314Z,99897.34
2023-03-28T15:50:54.320Z,99893.00
2023-03-28T15:53:30.516Z,99894.88
2023-03-28T15:56:09.825Z,99893.66
2023-03-28T15:58:44.990Z,99899.66
2023-03-28T16:01:21.496Z,99904.13
2023-03-28T16:04:16.319Z,99893.03
2023-03-28T16:06:50.160Z,99883.03
2023-03-28T16:09:26.611Z,99892.50
2023-03-28T16:12:01.426Z,99891.81
2023-03-28T16:14:51.428Z,99890.59
2023-03-28T16:17:34.818Z,99888.81
2023-03-28T16:20:27.424Z,99884.56
2023-03-28T16:23:03.450Z,99870.78
2023-03-28T16:25:38.065Z,99871.59
2023-03-28T16:28:17.703Z,99871.00
2023-03-28T16:30:50.975Z,99864.94
2023-03-28T16:33:24.673Z,99866.94
2023-03-28T16:36:00.943Z,99864.50
2023-03-28T16:38:34.081Z,99866.50
2023-03-28T16:41:08.657Z,99864.31
2023-03-28T16:43:41.797Z,99858.47
2023-03-28T16:46:15.163Z,99863.53
2023-03-28T16:48:48.265Z,99863.88
2023-03-28T16:51:21.212Z,99864.03
2023-03-28T16:53:54.443Z,99862.06
2023-03-28T16:56:30.249Z,99860.03
2023-03-28T16:59:04.079Z,99860.13
2023-03-28T17:01:37.557Z,99854.91
2023-03-28T17:04:10.848Z,99846.97
2023-03-28T17:06:43.768Z,99836.09
2023-03-28T17:09:16.697Z,99837.28
2023-03-28T17:11:51.493Z,99843.34
2023-03-28T17:14:24.503Z,99834.66
2023-03-28T17:16:57.537Z,99832.63
2023-03-28T17:19:30.587Z,99824.28
2023-03-28T17:22:03.824Z,99818.72
2023-03-28T17:24:36.798Z,99815.16
2023-03-28T17:27:11.096Z,99813.22
2023-03-28T17:29:43.874Z,99815.16
2023-03-28T17:32:17.111Z,99805.25
2023-03-28T17:34:50.169Z,99797.66
2023-03-28T17:37:24.614Z,99804.44
2023-03-28T17:39:57.570Z,99801.66
2023-03-28T17:42:31.824Z,99794.91
2023-03-28T17:45:06.801Z,99783.81
2023-03-28T17:47:39.852Z,99788.53
2023-03-28T17:50:13.288Z,99788.13
2023-03-28T17:52:46.089Z,99788.91
2023-03-28T17:55:19.257Z,99780.19
2023-03-28T17:57:53.474Z,99780.78
2023-03-28T18:00:27.231Z,99777.13
2023-03-28T18:03:01.067Z,99776.72
2023-03-28T18:06:00.149Z,99776.69
2023-03-28T18:08:34.870Z,99770.66
2023-03-28T18:11:10.282Z,99773.41
2023-03-28T18:13:45.589Z,99778.00
2023-03-28T18:16:19.059Z,99779.88
2023-03-28T18:18:54.166Z,99775.09
2023-03-28T18:21:27.734Z,99781.97
2023-03-28T18:24:00.635Z,99785.88
2023-03-28T18:26:33.684Z,99778.28
2023-03-28T18:29:08.041Z,99782.31
2023-03-28T18:31:42.278Z,99778.81
2023-03-28T18:34:15.352Z,99776.78
2023-03-28T18:36:48.267Z,99770.28
2023-03-28T18:39:23.151Z,99767.03
2023-03-28T18:41:56.144Z,99758.38
2023-03-28T18:44:30.386Z,99752.28
2023-03-28T18:47:03.892Z,99750.19
2023-03-28T18:49:36.955Z,99748.53
2023-03-28T18:52:10.655Z,99749.53
2023-03-28T18:54:45.991Z,99753.25
2023-03-28T18:57:19.179Z,99752.38
2023-03-28T18:59:54.020Z,99751.50
2023-03-28T19:02:28.772Z,99757.50
2023-03-28T19:05:01.776Z,99752.06
2023-03-28T19:07:34.738Z,99749.50
2023-03-28T19:10:09.440Z,99741.41
2023-03-28T19:12:42.855Z,99747.34
2023-03-28T19:15:17.469Z,99745.91
2023-03-28T19:17:51.136Z,99743.75
2023-03-28T19:20:24.268Z,99751.34
2023-03-28T19:22:58.636Z,99742.63
2023-03-28T19:25:31.922Z,99734.69
2023-03-28T19:28:05.331Z,99744.56
2023-03-28T19:30:40.785Z,99734.53
2023-03-28T19:33:14.149Z,99731.63
2023-03-28T19:35:47.202Z,99732.38
2023-03-28T19:38:21.058Z,99731.81
2023-03-28T19:40:58.285Z,99740.56
2023-03-28T19:43:32.049Z,99725.66
2023-03-28T19:46:09.068Z,99726.94
2023-03-28T19:48:42.119Z,99735.56
2023-03-28T19:51:16.012Z,99723.81
2023-03-28T19:53:49.207Z,99729.38
2023-03-28T19:56:23.533Z,99735.34
2023-03-28T19:58:56.557Z,99722.88
2023-03-28T20:01:31.359Z,99721.09
2023-03-28T20:04:04.518Z,99723.81
2023-03-28T20:06:37.819Z,99716.84
2023-03-28T20:09:10.631Z,99711.31
2023-03-28T20:11:43.622Z,99705.16
2023-03-28T20:14:20.039Z,99710.94
2023-03-28T20:16:54.711Z,99698.31
2023-03-28T20:19:32.305Z,99696.75
2023-03-28T20:22:06.617Z,99690.56
2023-03-28T20:24:39.607Z,99679.44
2023-03-28T20:27:12.953Z,99676.81
2023-03-28T20:29:46.915Z,99673.72
2023-03-28T20:32:21.245Z,99669.25
2023-03-28T20:34:54.343Z,99676.22
2023-03-28T20:37:27.334Z,99665.50
2023-03-28T20:40:05.338Z,99672.69
2023-03-28T20:42:39.552Z,99665.13
2023-03-28T20:45:22.399Z,99661.59
2023-03-28T20:47:59.058Z,99650.22
2023-03-28T20:50:34.248Z,99639.84
2023-03-28T20:53:08.068Z,99645.84
2023-03-28T20:55:41.305Z,99643.25
2023-03-28T20:58:14.164Z,99647.41
2023-03-28T21:00:47.481Z,99644.44
2023-03-28T21:03:22.130Z,99637.28
2023-03-28T21:05:55.266Z,99646.19
2023-03-28T21:08:28.096Z,99638.69
2023-03-28T21:11:01.588Z,99637.28
2023-03-28T21:13:34.648Z,99633.63
2023-03-28T21:16:09.051Z,99627.84
2023-03-28T21:18:43.992Z,99632.63
2023-03-28T21:21:19.514Z,99624.78
2023-03-28T21:23:53.248Z,99621.22
2023-03-28T21:26:27.283Z,99619.13
2023-03-28T21:29:00.419Z,99611.94
2023-03-28T21:31:33.371Z,99604.41
2023-03-28T21:34:07.883Z,99604.22
2023-03-28T21:36:41.104Z,99609.19
2023-03-28T21:39:14.114Z,99609.66
2023-03-28T21:41:46.925Z,99599.97
2023-03-28T21:44:19.960Z,99610.16
2023-03-28T21:46:53.010Z,99598.41
2023-03-28T21:49:27.933Z,99600.78
2023-03-28T21:52:01.048Z,99605.34
2023-03-28T21:54:34.301Z,99604.53
2023-03-28T21:57:07.180Z,99610.53
2023-03-28T21:59:41.486Z,99610.56
2023-03-28T22:02:14.679Z,99617.03
2023-03-28T22:04:48.984Z,99617.19
2023-03-28T22:07:22.050Z,99600.66
2023-03-28T22:09:54.939Z,99600.91
2023-03-28T22:12:27.994Z,99599.38
2023-03-28T22:15:00.922Z,99585.41
2023-03-28T22:17:36.680Z,99588.38
2023-03-28T22:20:12.895Z,99584.63
2023-03-28T22:22:48.580Z,99587.97
2023-03-28T22:25:22.836Z,99589.59
2023-03-28T22:27:55.768Z,99596.78
2023-03-28T22:30:28.823Z,99594.97
2023-03-28T22:33:02.541Z,99595.31
2023-03-28T22:35:37.501Z,99603.56
2023-03-28T22:38:10.560Z,99606.28
2023-03-28T22:40:43.444Z,99609.84
2023-03-28T22:43:17.188Z,99611.03
2023-03-28T22:45:50.316Z,99609.28
2023-03-28T22:48:23.162Z,99604.78
2023-03-28T22:51:00.685Z,99606.19
2023-03-28T22:53:36.022Z,99610.44
2023-03-28T22:56:09.614Z,99596.78
2023-03-28T22:58:42.654Z,99607.69
2023-03-28T23:01:15.511Z,99598.16
2023-03-28T23:03:48.425Z,99594.66
2023-03-28T23:06:23.452Z,99595.22
2023-03-28T23:08:56.499Z,99594.34
2023-03-28T23:11:29.635Z,99589.25
2023-03-28T23:14:03.467Z,99588.38
2023-03-28T23:16:38.402Z,99581.44
2023-03-28T23:19:11.385Z,99588.91
2023-03-28T23:21:45.782Z,99594.00
2023-03-28T23:24:19.291Z,99599.91
2023-03-28T23:26:52.273Z,99591.66
2023-03-28T23:29:25.389Z,99592.50
2023-03-28T23:31:58.465Z,99594.44
2023-03-28T23:34:33.456Z,99591.38
2023-03-28T23:37:07.940Z,99592.69
2023-03-28T23:39:40.898Z,99588.44
2023-03-28T23:42:13.785Z,99576.06
2023-03-28T23:44:47.028Z,99575.84
2023-03-28T23:47:21.037Z,99575.09
2023-03-28T23:49:54.364Z,99567.69
2023-03-28T23:52:28.546Z,99573.28
2023-03-28T23:55:01.696Z,99566.50
2023-03-28T23:57:34.638Z,99566.16
